createdAt,value
2017-12-22T07:03:30.062Z,8.05
2017-12-22T07:04:30.632Z,8.15
2017-12-22T07:05:31.202Z,8.18
2017-12-22T07:06:31.774Z,8.10
2017-12-22T07:07:32.345Z,8.13
2017-12-22T07:08:32.915Z,8.13
2017-12-22T07:09:33.540Z,8.09
2017-12-22T07:10:34.122Z,8.10
2017-12-22T07:11:34.695Z,8.16
2017-12-22T07:12:35.275Z,8.05
2017-12-22T07:13:35.840Z,8.15
2017-12-22T07:14:36.412Z,8.13
2017-12-22T07:15:36.983Z,8.03
2017-12-22T07:16:37.567Z,8.18
2017-12-22T07:17:38.139Z,8.20
2017-12-22T07:18:38.723Z,8.16
2017-12-22T07:19:39.320Z,8.26
2017-12-22T07:20:39.865Z,8.10
2017-12-22T07:21:40.438Z,8.10
2017-12-22T07:22:41.010Z,8.05
2017-12-22T07:23:41.584Z,8.00
2017-12-22T07:24:42.154Z,7.97
2017-12-22T07:25:42.725Z,8.03
2017-12-22T07:26:43.296Z,8.10
2017-12-22T07:27:43.866Z,8.06
2017-12-22T07:28:44.437Z,8.00
2017-12-22T07:29:45.022Z,8.06
2017-12-22T07:30:45.605Z,7.91
2017-12-22T07:31:46.178Z,7.97
2017-12-22T07:32:46.748Z,8.05
2017-12-22T07:33:47.319Z,8.03
2017-12-22T07:34:47.889Z,8.09
2017-12-22T07:35:48.475Z,8.08
2017-12-22T07:36:49.046Z,8.19
2017-12-22T07:37:49.616Z,8.06
2017-12-22T07:38:50.187Z,8.09
2017-12-22T07:39:50.761Z,8.12
2017-12-22T07:40:51.333Z,8.10
2017-12-22T07:41:51.905Z,8.16
2017-12-22T07:42:52.477Z,8.10
2017-12-22T07:43:53.048Z,8.19
2017-12-22T07:44:53.619Z,8.03
2017-12-22T07:45:54.191Z,8.06
2017-12-22T07:46:54.777Z,7.90
2017-12-22T07:47:55.350Z,7.97
2017-12-22T07:48:55.921Z,8.12
2017-12-22T07:49:56.494Z,8.06
2017-12-22T07:50:57.066Z,8.10
2017-12-22T07:51:57.638Z,8.10
2017-12-22T07:52:58.208Z,8.15
2017-12-22T07:53:58.794Z,8.13
2017-12-22T07:54:59.364Z,8.05
2017-12-22T07:55:59.952Z,8.24
2017-12-22T07:57:00.524Z,8.30
2017-12-22T07:58:01.094Z,8.30
2017-12-22T07:59:01.669Z,8.26
2017-12-22T08:00:02.243Z,8.30
2017-12-22T08:01:02.815Z,8.27
2017-12-22T08:02:03.388Z,8.05
2017-12-22T08:03:03.960Z,8.06
2017-12-22T08:04:04.533Z,8.06
2017-12-22T08:05:05.107Z,8.01
2017-12-22T08:06:05.678Z,8.03
2017-12-22T08:07:06.250Z,8.10
2017-12-22T08:08:06.824Z,8.13
2017-12-22T08:09:07.393Z,8.06
2017-12-22T08:10:07.965Z,8.01
2017-12-22T08:11:08.539Z,8.10
2017-12-22T08:12:09.110Z,8.08
2017-12-22T08:13:09.682Z,8.13
2017-12-22T08:14:10.254Z,8.15
2017-12-22T08:15:10.827Z,8.08
2017-12-22T08:16:11.399Z,8.09
2017-12-22T08:17:11.975Z,8.05
2017-12-22T08:18:12.544Z,8.06
2017-12-22T08:19:13.115Z,8.08
2017-12-22T08:20:13.684Z,8.08
2017-12-22T08:21:14.256Z,8.23
2017-12-22T08:22:14.829Z,8.30
2017-12-22T08:23:15.402Z,8.36
2017-12-22T08:24:15.973Z,8.34
2017-12-22T08:25:16.547Z,8.16
2017-12-22T08:26:17.119Z,8.12
2017-12-22T08:27:17.693Z,8.15
2017-12-22T08:28:18.277Z,8.20
2017-12-22T08:29:18.862Z,8.23
2017-12-22T08:30:19.434Z,8.16
2017-12-22T08:31:20.007Z,8.10
2017-12-22T08:32:20.581Z,8.15
2017-12-22T08:33:21.154Z,8.16
2017-12-22T08:34:21.728Z,8.16
2017-12-22T08:35:22.299Z,8.15
2017-12-22T08:36:22.875Z,8.16
2017-12-22T08:37:23.460Z,8.16
2017-12-22T08:38:24.032Z,8.13
2017-12-22T08:39:24.605Z,8.15
2017-12-22T08:40:25.181Z,8.18
2017-12-22T08:41:25.752Z,8.30
2017-12-22T08:42:26.324Z,8.27
2017-12-22T08:43:26.897Z,8.28
2017-12-22T08:44:27.470Z,8.31
2017-12-22T08:45:28.043Z,8.31
2017-12-22T08:46:28.615Z,8.33
2017-12-22T08:47:29.186Z,8.34
2017-12-22T08:48:29.758Z,8.36
2017-12-22T08:49:30.347Z,8.36
2017-12-22T08:50:30.915Z,8.37
2017-12-22T08:51:31.489Z,8.36
2017-12-22T08:52:32.061Z,8.41
2017-12-22T08:53:32.634Z,8.33
2017-12-22T08:54:33.205Z,8.34
2017-12-22T08:55:33.775Z,8.37
2017-12-22T08:56:34.346Z,8.31
2017-12-22T08:57:34.918Z,8.34
2017-12-22T08:58:35.491Z,8.36
2017-12-22T08:59:36.063Z,8.36
2017-12-22T09:00:36.636Z,8.46
2017-12-22T09:01:37.210Z,8.42
2017-12-22T09:02:37.781Z,8.48
2017-12-22T09:03:38.351Z,8.46
2017-12-22T09:04:38.922Z,8.52
2017-12-22T09:05:39.495Z,8.49
2017-12-22T09:06:40.073Z,8.44
2017-12-22T09:07:40.645Z,8.41
2017-12-22T09:08:41.218Z,8.42
2017-12-22T09:09:41.789Z,8.53
2017-12-22T09:10:42.362Z,8.55
2017-12-22T09:11:42.931Z,8.53
2017-12-22T09:12:43.504Z,8.49
2017-12-22T09:13:44.075Z,8.55
2017-12-22T09:14:44.649Z,8.48
2017-12-22T09:15:45.219Z,8.53
2017-12-22T09:16:45.792Z,8.52
2017-12-22T09:17:46.365Z,8.52
2017-12-22T09:18:46.937Z,8.58
2017-12-22T09:19:47.508Z,8.51
2017-12-22T09:20:48.079Z,8.61
2017-12-22T09:21:48.655Z,8.63
2017-12-22T09:22:49.224Z,8.60
2017-12-22T09:23:49.796Z,8.61
2017-12-22T09:24:50.368Z,8.60
2017-12-22T09:25:50.942Z,8.56
2017-12-22T09:26:51.510Z,8.55
2017-12-22T09:27:52.081Z,8.56
2017-12-22T09:28:52.651Z,8.60
2017-12-22T09:29:53.223Z,8.63
2017-12-22T09:30:53.795Z,8.61
2017-12-22T09:31:54.368Z,8.60
2017-12-22T09:32:54.940Z,8.63
2017-12-22T09:33:55.512Z,8.63
2017-12-22T09:34:56.091Z,8.74
2017-12-22T09:35:56.658Z,8.63
2017-12-22T09:36:57.228Z,8.61
2017-12-22T09:37:57.801Z,8.67
2017-12-22T09:38:58.389Z,8.71
2017-12-22T09:39:58.971Z,8.78
2017-12-22T09:40:59.552Z,8.81
2017-12-22T09:42:00.130Z,8.81
2017-12-22T09:43:00.715Z,8.82
2017-12-22T09:44:01.288Z,8.82
2017-12-22T09:45:01.860Z,8.82
2017-12-22T09:46:02.433Z,8.84
2017-12-22T09:47:03.007Z,8.78
2017-12-22T09:48:03.621Z,8.85
2017-12-22T09:49:04.149Z,8.82
2017-12-22T09:50:04.735Z,8.85
2017-12-22T09:51:05.334Z,8.79
2017-12-22T09:52:05.886Z,8.92
2017-12-22T09:53:06.458Z,8.88
2017-12-22T09:54:07.031Z,8.95
2017-12-22T09:55:07.604Z,8.99
2017-12-22T09:56:08.177Z,8.88
2017-12-22T09:57:08.745Z,8.88
2017-12-22T09:58:09.316Z,8.91
2017-12-22T09:59:09.887Z,8.85
2017-12-22T10:00:10.457Z,8.91
2017-12-22T10:01:11.029Z,8.91
2017-12-22T10:02:11.602Z,8.95
2017-12-22T10:03:12.174Z,8.94
2017-12-22T10:04:12.746Z,8.88
2017-12-22T10:05:13.332Z,8.94
2017-12-22T10:06:13.907Z,8.97
2017-12-22T10:07:14.479Z,8.94
2017-12-22T10:08:15.063Z,8.88
2017-12-22T10:09:15.635Z,8.88
2017-12-22T10:10:16.220Z,8.97
2017-12-22T10:11:16.792Z,8.92
2017-12-22T10:12:17.371Z,8.94
2017-12-22T10:13:17.949Z,8.95
2017-12-22T10:14:18.522Z,8.95
2017-12-22T10:15:19.094Z,8.97
2017-12-22T10:16:19.676Z,8.92
2017-12-22T10:17:20.252Z,9.08
2017-12-22T10:18:20.824Z,9.02
2017-12-22T10:19:21.398Z,8.94
2017-12-22T10:20:21.972Z,9.06
2017-12-22T10:21:22.560Z,9.04
2017-12-22T10:22:23.132Z,9.03
2017-12-22T10:23:23.705Z,9.06
2017-12-22T10:24:24.323Z,9.06
2017-12-22T10:25:24.850Z,9.06
2017-12-22T10:26:25.424Z,9.02
2017-12-22T10:27:25.996Z,9.02
2017-12-22T10:28:26.571Z,9.03
2017-12-22T10:29:27.142Z,9.00
2017-12-22T10:30:27.716Z,9.03
2017-12-22T10:31:28.302Z,9.00
2017-12-22T10:32:28.890Z,9.04
2017-12-22T10:33:29.462Z,9.03
2017-12-22T10:34:30.036Z,9.10
2017-12-22T10:35:30.612Z,9.10
2017-12-22T10:36:31.183Z,9.03
2017-12-22T10:37:31.755Z,9.02
2017-12-22T10:38:32.330Z,9.18
2017-12-22T10:39:32.903Z,9.11
2017-12-22T10:40:33.477Z,9.08
2017-12-22T10:41:34.049Z,9.14
2017-12-22T10:42:34.623Z,9.19
2017-12-22T10:43:35.194Z,9.10
2017-12-22T10:44:35.768Z,9.10
2017-12-22T10:45:36.342Z,9.11
2017-12-22T10:46:36.914Z,9.06
2017-12-22T10:47:37.486Z,9.02
2017-12-22T10:48:38.061Z,9.03
2017-12-22T10:49:38.633Z,9.10
2017-12-22T10:50:39.208Z,9.03
2017-12-22T10:51:39.780Z,9.10
2017-12-22T10:52:40.353Z,9.03
2017-12-22T10:53:40.926Z,9.10
2017-12-22T10:54:41.513Z,9.11
2017-12-22T10:55:42.089Z,9.11
2017-12-22T10:56:42.673Z,9.00
2017-12-22T10:57:43.248Z,9.14
2017-12-22T10:58:43.821Z,9.04
2017-12-22T10:59:44.392Z,9.10
2017-12-22T11:00:44.986Z,9.04
2017-12-22T11:01:45.556Z,9.03
2017-12-22T11:02:46.129Z,9.10
2017-12-22T11:03:46.704Z,9.06
2017-12-22T11:04:47.275Z,9.11
2017-12-22T11:05:47.849Z,9.08
2017-12-22T11:06:48.420Z,9.08
2017-12-22T11:07:48.994Z,9.04
2017-12-22T11:08:49.569Z,9.02
2017-12-22T11:09:50.141Z,9.06
2017-12-22T11:10:50.712Z,9.02
2017-12-22T11:11:51.285Z,9.08
2017-12-22T11:12:51.856Z,9.13
2017-12-22T11:13:52.432Z,9.06
2017-12-22T11:14:53.004Z,9.08
2017-12-22T11:15:53.576Z,9.11
2017-12-22T11:16:54.151Z,9.11
2017-12-22T11:17:54.721Z,9.08
2017-12-22T11:18:55.296Z,9.11
2017-12-22T11:19:55.869Z,9.10
2017-12-22T11:20:56.442Z,9.11
2017-12-22T11:21:57.017Z,9.16
2017-12-22T11:22:57.591Z,9.23
2017-12-22T11:23:58.165Z,9.26
2017-12-22T11:24:58.737Z,9.26
2017-12-22T11:25:59.317Z,9.22
2017-12-22T11:26:59.886Z,9.29
2017-12-22T11:28:00.459Z,9.14
2017-12-22T11:29:01.031Z,9.18
2017-12-22T11:30:01.605Z,9.18
2017-12-22T11:31:02.179Z,9.25
2017-12-22T11:32:02.755Z,9.23
2017-12-22T11:33:03.328Z,9.21
2017-12-22T11:34:03.901Z,9.29
2017-12-22T11:35:04.477Z,9.28
2017-12-22T11:36:05.050Z,9.22
2017-12-22T11:37:05.623Z,9.22
2017-12-22T11:38:06.197Z,9.23
2017-12-22T11:39:06.770Z,9.26
2017-12-22T11:40:07.343Z,9.25
2017-12-22T11:41:07.917Z,9.26
2017-12-22T11:42:08.493Z,9.32
2017-12-22T11:43:09.063Z,9.25
2017-12-22T11:44:09.636Z,9.29
2017-12-22T11:45:10.211Z,9.29
2017-12-22T11:46:10.785Z,9.22
2017-12-22T11:47:11.359Z,9.25
2017-12-22T11:48:11.934Z,9.31
2017-12-22T11:49:12.507Z,9.31
2017-12-22T11:50:13.082Z,9.22
2017-12-22T11:51:13.653Z,9.31
2017-12-22T11:52:14.224Z,9.28
2017-12-22T11:53:14.798Z,9.26
2017-12-22T11:54:15.368Z,9.23
2017-12-22T11:55:15.942Z,9.25
2017-12-22T11:56:16.516Z,9.29
2017-12-22T11:57:17.082Z,9.29
2017-12-22T11:58:17.655Z,9.22
2017-12-22T11:59:18.223Z,9.18
2017-12-22T12:00:18.793Z,9.28
2017-12-22T12:01:19.378Z,9.25
2017-12-22T12:02:19.952Z,9.23
2017-12-22T12:03:20.540Z,9.34
2017-12-22T12:04:21.110Z,9.32
2017-12-22T12:05:21.681Z,9.22
2017-12-22T12:06:22.258Z,9.25
2017-12-22T12:07:22.832Z,9.29
2017-12-22T12:08:23.407Z,9.31
2017-12-22T12:09:23.979Z,9.26
2017-12-22T12:10:24.567Z,9.25
2017-12-22T12:11:25.143Z,9.25
2017-12-22T12:12:25.718Z,9.23
2017-12-22T12:13:26.292Z,9.28
2017-12-22T12:14:26.865Z,9.31
2017-12-22T12:15:27.441Z,9.21
2017-12-22T12:16:28.031Z,9.29
2017-12-22T12:17:28.605Z,9.26
2017-12-22T12:18:29.180Z,9.34
2017-12-22T12:19:29.752Z,9.36
2017-12-22T12:20:30.326Z,9.43
2017-12-22T12:21:30.901Z,9.47
2017-12-22T12:22:31.501Z,9.41
2017-12-22T12:23:32.048Z,9.39
2017-12-22T12:24:32.623Z,9.44
2017-12-22T12:25:33.198Z,9.43
2017-12-22T12:26:33.773Z,9.40
2017-12-22T12:27:34.346Z,9.41
2017-12-22T12:28:34.921Z,9.39
2017-12-22T12:29:35.497Z,9.41
2017-12-22T12:30:36.070Z,9.46
2017-12-22T12:31:36.644Z,9.59
2017-12-22T12:32:37.218Z,9.59
2017-12-22T12:33:37.792Z,9.58
2017-12-22T12:34:38.381Z,9.51
2017-12-22T12:35:38.956Z,9.64
2017-12-22T12:36:39.529Z,9.54
2017-12-22T12:37:40.118Z,9.62
2017-12-22T12:38:40.690Z,9.58
2017-12-22T12:39:41.277Z,9.56
2017-12-22T12:40:41.865Z,9.55
2017-12-22T12:41:42.438Z,9.50
2017-12-22T12:42:43.013Z,9.36
2017-12-22T12:43:43.590Z,9.43
2017-12-22T12:44:44.164Z,9.43
2017-12-22T12:45:44.737Z,9.48
2017-12-22T12:46:45.311Z,9.51
2017-12-22T12:47:45.899Z,9.54
2017-12-22T12:48:46.471Z,9.37
2017-12-22T12:49:47.058Z,9.34
2017-12-22T12:50:47.632Z,9.43
2017-12-22T12:51:48.219Z,9.34
2017-12-22T12:52:48.808Z,9.51
2017-12-22T12:53:49.381Z,9.44
2017-12-22T12:54:49.958Z,9.34
2017-12-22T12:55:50.530Z,9.28
2017-12-22T12:56:51.105Z,9.34
2017-12-22T12:57:51.680Z,9.29
2017-12-22T12:58:52.254Z,9.50
2017-12-22T12:59:52.830Z,9.41
2017-12-22T13:00:53.405Z,9.43
2017-12-22T13:01:53.994Z,9.44
2017-12-22T13:02:54.567Z,9.23
2017-12-22T13:03:55.143Z,9.32
2017-12-22T13:04:55.717Z,9.28
2017-12-22T13:05:56.291Z,9.25
2017-12-22T13:06:56.865Z,9.32
2017-12-22T13:07:57.439Z,9.47
2017-12-22T13:08:58.015Z,9.50
2017-12-22T13:09:58.592Z,9.40
2017-12-22T13:10:59.178Z,9.40
2017-12-22T13:11:59.752Z,9.46
2017-12-22T13:13:00.329Z,9.58
2017-12-22T13:14:00.903Z,9.64
2017-12-22T13:15:01.477Z,9.66
2017-12-22T13:16:02.050Z,9.62
2017-12-22T13:17:02.624Z,9.58
2017-12-22T13:18:03.202Z,9.55
2017-12-22T13:19:03.789Z,9.62
2017-12-22T13:20:04.363Z,9.50
2017-12-22T13:21:04.936Z,9.48
2017-12-22T13:22:05.510Z,9.51
2017-12-22T13:23:06.086Z,9.58
2017-12-22T13:24:06.661Z,9.55
2017-12-22T13:25:07.234Z,9.40
2017-12-22T13:26:07.809Z,9.40
2017-12-22T13:27:08.386Z,9.41
2017-12-22T13:28:08.958Z,9.44
2017-12-22T13:29:09.569Z,9.51
2017-12-22T13:30:10.109Z,9.48
2017-12-22T13:31:10.684Z,9.62
2017-12-22T13:32:11.259Z,9.61
2017-12-22T13:33:11.833Z,9.47
2017-12-22T13:34:12.407Z,9.54
2017-12-22T13:35:12.984Z,9.58
2017-12-22T13:36:13.557Z,9.59
2017-12-22T13:37:14.130Z,9.55
2017-12-22T13:38:14.706Z,9.48
2017-12-22T13:39:15.280Z,9.44
2017-12-22T13:40:15.855Z,9.40
2017-12-22T13:41:16.429Z,9.46
2017-12-22T13:42:17.004Z,9.44
2017-12-22T13:43:17.581Z,9.51
2017-12-22T13:44:18.154Z,9.56
2017-12-22T13:45:18.729Z,9.59
2017-12-22T13:46:19.303Z,9.54
2017-12-22T13:47:19.888Z,9.44
2017-12-22T13:48:20.464Z,9.44
2017-12-22T13:49:21.047Z,9.44
2017-12-22T13:50:21.621Z,9.51
2017-12-22T13:51:22.194Z,9.43
2017-12-22T13:52:22.767Z,9.41
2017-12-22T13:53:23.338Z,9.47
2017-12-22T13:54:23.908Z,9.40
2017-12-22T13:55:24.481Z,9.46
2017-12-22T13:56:25.054Z,9.37
2017-12-22T13:57:25.638Z,9.40
2017-12-22T13:58:26.210Z,9.43
2017-12-22T13:59:26.790Z,9.40
2017-12-22T14:00:27.355Z,9.39
2017-12-22T14:01:27.928Z,9.40
2017-12-22T14:02:28.501Z,9.32
2017-12-22T14:03:29.073Z,9.43
2017-12-22T14:04:29.644Z,9.39
2017-12-22T14:05:30.215Z,9.44
2017-12-22T14:06:30.798Z,9.41
2017-12-22T14:07:31.371Z,9.41
2017-12-22T14:08:31.947Z,9.37
2017-12-22T14:09:32.527Z,9.46
2017-12-22T14:10:33.099Z,9.25
2017-12-22T14:11:33.670Z,9.23
2017-12-22T14:12:34.243Z,9.29
2017-12-22T14:13:34.816Z,9.29
2017-12-22T14:14:35.391Z,9.26
2017-12-22T14:15:35.965Z,9.26
2017-12-22T14:16:36.538Z,9.31
2017-12-22T14:17:37.111Z,9.32
2017-12-22T14:18:37.687Z,9.29
2017-12-22T14:19:38.259Z,9.29
2017-12-22T14:20:38.833Z,9.31
2017-12-22T14:21:39.404Z,9.29
2017-12-22T14:22:39.976Z,9.28
2017-12-22T14:23:40.548Z,9.29
2017-12-22T14:24:41.123Z,9.19
2017-12-22T14:25:41.697Z,9.25
2017-12-22T14:26:42.284Z,9.22
2017-12-22T14:27:42.872Z,9.18
2017-12-22T14:28:43.430Z,9.10
2017-12-22T14:29:44.002Z,9.16
2017-12-22T14:30:44.589Z,9.08
2017-12-22T14:31:45.162Z,9.08
2017-12-22T14:32:45.734Z,9.04
2017-12-22T14:33:46.308Z,9.08
2017-12-22T14:34:46.881Z,9.08
2017-12-22T14:35:47.455Z,9.11
2017-12-22T14:36:48.027Z,9.08
2017-12-22T14:37:48.600Z,9.03
2017-12-22T14:38:49.173Z,8.94
2017-12-22T14:39:49.746Z,8.95
2017-12-22T14:40:50.320Z,9.08
2017-12-22T14:41:50.892Z,9.00
2017-12-22T14:42:51.464Z,9.06
2017-12-22T14:43:52.038Z,8.91
2017-12-22T14:44:52.613Z,8.97
2017-12-22T14:45:53.200Z,8.84
2017-12-22T14:46:53.772Z,8.82
2017-12-22T14:47:54.344Z,8.81
2017-12-22T14:48:54.916Z,8.87
2017-12-22T14:49:55.488Z,8.88
2017-12-22T14:50:56.061Z,8.79
2017-12-22T14:51:56.636Z,8.82
2017-12-22T14:52:57.208Z,8.87
2017-12-22T14:53:57.781Z,8.87
2017-12-22T14:54:58.361Z,8.81
2017-12-22T14:55:58.923Z,8.73
2017-12-22T14:56:59.509Z,8.71
2017-12-22T14:58:00.083Z,8.58
2017-12-22T14:59:00.656Z,8.58
2017-12-22T15:00:01.228Z,8.61
2017-12-22T15:01:01.802Z,8.66
2017-12-22T15:02:02.374Z,8.60
2017-12-22T15:03:02.946Z,8.58
2017-12-22T15:04:03.521Z,8.63
2017-12-22T15:05:04.093Z,8.64
2017-12-22T15:06:04.664Z,8.64
2017-12-22T15:07:05.236Z,8.58
2017-12-22T15:08:05.812Z,8.63
2017-12-22T15:09:06.382Z,8.64
2017-12-22T15:10:06.959Z,8.58
2017-12-22T15:11:07.545Z,8.63
2017-12-22T15:12:08.112Z,8.60
2017-12-22T15:13:08.683Z,8.60
2017-12-22T15:14:09.252Z,8.64
2017-12-22T15:15:09.837Z,8.58
2017-12-22T15:16:10.408Z,8.61
2017-12-22T15:17:10.985Z,8.58
2017-12-22T15:18:11.549Z,8.61
2017-12-22T15:19:12.121Z,8.61
2017-12-22T15:20:12.691Z,8.61
2017-12-22T15:21:13.263Z,8.51
2017-12-22T15:22:13.835Z,8.55
2017-12-22T15:23:14.406Z,8.46
2017-12-22T15:24:14.978Z,8.42
2017-12-22T15:25:15.549Z,8.37
2017-12-22T15:26:16.120Z,8.36
2017-12-22T15:27:16.692Z,8.42
2017-12-22T15:28:17.266Z,8.31
2017-12-22T15:29:17.837Z,8.41
2017-12-22T15:30:18.409Z,8.34
2017-12-22T15:31:18.978Z,8.28
2017-12-22T15:32:19.549Z,8.30
2017-12-22T15:33:20.120Z,8.36
2017-12-22T15:34:20.697Z,8.34
2017-12-22T15:35:21.265Z,8.34
2017-12-22T15:36:21.836Z,8.42
2017-12-22T15:37:22.407Z,8.30
2017-12-22T15:38:22.979Z,8.34
2017-12-22T15:39:23.550Z,8.38
2017-12-22T15:40:24.121Z,8.30
2017-12-22T15:41:24.695Z,8.31
2017-12-22T15:42:25.263Z,8.33
2017-12-22T15:43:25.837Z,8.33
2017-12-22T15:44:26.407Z,8.28
2017-12-22T15:45:26.979Z,8.33
2017-12-22T15:46:27.550Z,8.33
2017-12-22T15:47:28.136Z,8.34
2017-12-22T15:48:28.708Z,8.27
2017-12-22T15:49:29.281Z,8.20
2017-12-22T15:50:29.851Z,8.24
2017-12-22T15:51:30.425Z,8.20
2017-12-22T15:52:31.007Z,8.20
2017-12-22T15:53:31.578Z,8.15
2017-12-22T15:54:32.150Z,8.15
2017-12-22T15:55:32.721Z,8.19
2017-12-22T15:56:33.293Z,8.19
2017-12-22T15:57:33.865Z,8.16
2017-12-22T15:58:34.436Z,8.19
2017-12-22T15:59:35.008Z,8.26
2017-12-22T16:00:35.578Z,8.27
2017-12-22T16:01:36.149Z,8.20
2017-12-22T16:02:36.721Z,8.19
2017-12-22T16:03:37.290Z,8.20
2017-12-22T16:04:37.865Z,8.19
2017-12-22T16:05:38.435Z,8.19
2017-12-22T16:06:39.009Z,8.19
2017-12-22T16:07:39.593Z,8.23
2017-12-22T16:08:40.163Z,8.26
2017-12-22T16:09:40.735Z,8.26
2017-12-22T16:10:41.305Z,8.20
2017-12-22T16:11:41.875Z,8.20
2017-12-22T16:12:42.444Z,8.19
2017-12-22T16:13:43.014Z,8.23
2017-12-22T16:14:43.588Z,8.19
2017-12-22T16:15:44.219Z,8.24
2017-12-22T16:16:44.746Z,8.19
2017-12-22T16:17:45.519Z,8.28
2017-12-22T16:18:46.090Z,8.20
2017-12-22T16:19:46.663Z,8.16
2017-12-22T16:20:47.249Z,8.23
2017-12-22T16:21:47.868Z,8.30
2017-12-22T16:22:48.394Z,8.33
2017-12-22T16:23:48.965Z,8.15
2017-12-22T16:24:49.552Z,8.27
2017-12-22T16:25:50.123Z,8.26
2017-12-22T16:26:50.743Z,8.30
2017-12-22T16:27:51.284Z,8.23
2017-12-22T16:28:51.850Z,8.23
2017-12-22T16:29:52.435Z,8.10
2017-12-22T16:30:53.004Z,8.06
2017-12-22T16:31:53.577Z,8.08
2017-12-22T16:32:54.148Z,8.05
2017-12-22T16:33:54.718Z,8.06
2017-12-22T16:34:55.294Z,8.08
2017-12-22T16:35:55.876Z,8.05
2017-12-22T16:36:56.460Z,7.98
2017-12-22T16:37:57.032Z,7.95
2017-12-22T16:38:57.617Z,7.97
2017-12-22T16:39:58.191Z,7.91
2017-12-22T16:40:58.773Z,7.94
2017-12-22T16:41:59.345Z,7.80
2017-12-22T16:42:59.915Z,7.80
2017-12-22T16:44:00.486Z,7.83
2017-12-22T16:45:01.058Z,7.88
2017-12-22T16:46:01.626Z,7.83
2017-12-22T16:47:02.216Z,7.80
2017-12-22T16:48:02.779Z,7.76
2017-12-22T16:49:03.350Z,7.75
2017-12-22T16:50:03.933Z,7.82
2017-12-22T16:51:04.494Z,7.73
2017-12-22T16:52:05.065Z,7.77
2017-12-22T16:53:05.634Z,7.75
2017-12-22T16:54:06.204Z,7.73
2017-12-22T16:55:06.774Z,7.75
2017-12-22T16:56:07.347Z,7.72
2017-12-22T16:57:07.916Z,7.73
2017-12-22T16:58:08.487Z,7.75
2017-12-22T16:59:09.072Z,7.69
2017-12-22T17:00:09.656Z,7.76
2017-12-22T17:01:10.240Z,7.67
2017-12-22T17:02:10.810Z,7.63
2017-12-22T17:03:11.381Z,7.67
2017-12-22T17:04:11.950Z,7.60
2017-12-22T17:05:12.522Z,7.56
2017-12-22T17:06:13.094Z,7.57
2017-12-22T17:07:13.663Z,7.57
2017-12-22T17:08:14.240Z,7.58
2017-12-22T17:09:14.805Z,7.60
2017-12-22T17:10:15.375Z,7.56
2017-12-22T17:11:15.946Z,7.54
2017-12-22T17:12:16.518Z,7.51
2017-12-22T17:13:17.095Z,7.51
2017-12-22T17:14:17.679Z,7.54
2017-12-22T17:15:18.266Z,7.50
2017-12-22T17:16:18.837Z,7.54
2017-12-22T17:17:19.408Z,7.47
2017-12-22T17:18:19.978Z,7.47
2017-12-22T17:19:20.546Z,7.50
2017-12-22T17:20:21.117Z,7.43
2017-12-22T17:21:21.688Z,7.40
2017-12-22T17:22:22.259Z,7.47
2017-12-22T17:23:22.828Z,7.53
2017-12-22T17:24:23.398Z,7.50
2017-12-22T17:25:23.966Z,7.48
2017-12-22T17:26:24.548Z,7.50
2017-12-22T17:27:25.118Z,7.51
2017-12-22T17:28:25.687Z,7.53
2017-12-22T17:29:26.257Z,7.56
2017-12-22T17:30:26.828Z,7.51
2017-12-22T17:31:27.410Z,7.58
2017-12-22T17:32:27.989Z,7.50
2017-12-22T17:33:28.559Z,7.50
2017-12-22T17:34:29.128Z,7.53
2017-12-22T17:35:29.699Z,7.53
2017-12-22T17:36:30.268Z,7.48
2017-12-22T17:37:30.838Z,7.42
2017-12-22T17:38:31.406Z,7.45
2017-12-22T17:39:31.976Z,7.45
2017-12-22T17:40:32.544Z,7.43
2017-12-22T17:41:33.113Z,7.33
2017-12-22T17:42:33.682Z,7.31
2017-12-22T17:43:34.252Z,7.28
2017-12-22T17:44:34.820Z,7.33
2017-12-22T17:45:35.448Z,7.31
2017-12-22T17:46:36.015Z,7.31
2017-12-22T17:47:36.584Z,7.31
2017-12-22T17:48:37.167Z,7.25
2017-12-22T17:49:37.737Z,7.25
2017-12-22T17:50:38.306Z,7.29
2017-12-22T17:51:38.876Z,7.31
2017-12-22T17:52:39.460Z,7.28
2017-12-22T17:53:40.045Z,7.29
2017-12-22T17:54:40.616Z,7.32
2017-12-22T17:55:41.187Z,7.31
2017-12-22T17:56:41.758Z,7.32
2017-12-22T17:57:42.326Z,7.28
2017-12-22T17:58:42.899Z,7.29
2017-12-22T17:59:43.470Z,7.17
2017-12-22T18:00:44.040Z,7.28
2017-12-22T18:01:44.616Z,7.15
2017-12-22T18:02:45.181Z,7.06
2017-12-22T18:03:45.751Z,7.03
2017-12-22T18:04:46.322Z,7.13
2017-12-22T18:05:46.893Z,7.03
2017-12-22T18:06:47.478Z,7.06
2017-12-22T18:07:48.047Z,7.11
2017-12-22T18:08:48.632Z,7.02
2017-12-22T18:09:49.205Z,6.97
2017-12-22T18:10:49.774Z,6.96
2017-12-22T18:11:50.345Z,7.02
2017-12-22T18:12:50.929Z,6.97
2017-12-22T18:13:51.498Z,6.96
2017-12-22T18:14:52.068Z,6.93
2017-12-22T18:15:52.639Z,6.95
2017-12-22T18:16:53.226Z,6.89
2017-12-22T18:17:53.793Z,6.99
2017-12-22T18:18:54.362Z,6.85
2017-12-22T18:19:54.947Z,6.87
2017-12-22T18:20:55.516Z,6.87
2017-12-22T18:21:56.099Z,6.87
2017-12-22T18:22:56.668Z,6.84
2017-12-22T18:23:57.239Z,6.81
2017-12-22T18:24:57.808Z,6.84
2017-12-22T18:25:58.378Z,6.77
2017-12-22T18:26:58.949Z,6.81
2017-12-22T18:27:59.542Z,6.82
2017-12-22T18:29:00.113Z,6.85
2017-12-22T18:30:00.683Z,6.79
2017-12-22T18:31:01.252Z,6.79
2017-12-22T18:32:01.821Z,6.78
2017-12-22T18:33:02.392Z,6.81
2017-12-22T18:34:02.961Z,6.78
2017-12-22T18:35:03.531Z,6.82
2017-12-22T18:36:04.100Z,6.82
2017-12-22T18:37:04.671Z,6.87
2017-12-22T18:38:05.255Z,6.79
2017-12-22T18:39:05.825Z,6.77
2017-12-22T18:40:06.399Z,6.81
2017-12-22T18:41:06.967Z,6.78
2017-12-22T18:42:07.539Z,6.77
2017-12-22T18:43:08.106Z,6.82
2017-12-22T18:44:08.678Z,6.79
2017-12-22T18:45:09.250Z,6.74
2017-12-22T18:46:09.820Z,6.79
2017-12-22T18:47:10.397Z,6.81
2017-12-22T18:48:10.968Z,6.87
2017-12-22T18:49:11.539Z,6.75
2017-12-22T18:50:12.110Z,6.66
2017-12-22T18:51:12.679Z,6.72
2017-12-22T18:52:13.249Z,6.84
2017-12-22T18:53:13.833Z,6.85
2017-12-22T18:54:14.404Z,6.75
2017-12-22T18:55:14.989Z,6.72
2017-12-22T18:56:15.560Z,6.67
2017-12-22T18:57:16.129Z,6.66
2017-12-22T18:58:16.699Z,6.63
2017-12-22T18:59:17.269Z,6.63
2017-12-22T19:00:17.851Z,6.72
2017-12-22T19:01:18.434Z,6.69
2017-12-22T19:02:19.021Z,6.70
2017-12-22T19:03:19.599Z,6.67
2017-12-22T19:04:20.171Z,6.62
2017-12-22T19:05:20.743Z,6.54
2017-12-22T19:06:21.312Z,6.57
2017-12-22T19:07:21.884Z,6.60
2017-12-22T19:08:22.453Z,6.57
2017-12-22T19:09:23.023Z,6.54
2017-12-22T19:10:23.594Z,6.57
2017-12-22T19:11:24.164Z,6.49
2017-12-22T19:12:24.736Z,6.70
2017-12-22T19:13:25.307Z,6.49
2017-12-22T19:14:25.893Z,6.56
2017-12-22T19:15:26.463Z,6.56
2017-12-22T19:16:27.032Z,6.52
2017-12-22T19:17:27.601Z,6.51
2017-12-22T19:18:28.170Z,6.39
2017-12-22T19:19:28.742Z,6.36
2017-12-22T19:20:29.312Z,6.36
2017-12-22T19:21:29.884Z,6.30
2017-12-22T19:22:30.469Z,6.26
2017-12-22T19:23:31.038Z,6.26
2017-12-22T19:24:31.610Z,6.20
2017-12-22T19:25:32.179Z,6.24
2017-12-22T19:26:32.750Z,6.22
2017-12-22T19:27:33.321Z,6.20
2017-12-22T19:28:33.890Z,6.30
2017-12-22T19:29:34.498Z,6.28
2017-12-22T19:30:35.031Z,6.09
2017-12-22T19:31:35.603Z,6.26
2017-12-22T19:32:36.172Z,6.19
2017-12-22T19:33:36.742Z,6.24
2017-12-22T19:34:37.316Z,6.24
2017-12-22T19:35:37.885Z,6.19
2017-12-22T19:36:38.455Z,6.11
2017-12-22T19:37:39.026Z,6.14
2017-12-22T19:38:39.594Z,6.14
2017-12-22T19:39:40.163Z,6.09
2017-12-22T19:40:40.735Z,6.09
2017-12-22T19:41:41.323Z,6.11
2017-12-22T19:42:41.890Z,6.16
2017-12-22T19:43:42.461Z,6.14
2017-12-22T19:44:43.033Z,6.11
2017-12-22T19:45:43.614Z,6.12
2017-12-22T19:46:44.234Z,6.07
2017-12-22T19:47:44.806Z,5.98
2017-12-22T19:48:45.372Z,5.93
2017-12-22T19:49:45.942Z,5.93
2017-12-22T19:50:46.514Z,5.91
2017-12-22T19:51:47.089Z,5.97
2017-12-22T19:52:47.657Z,5.94
2017-12-22T19:53:48.223Z,5.90
2017-12-22T19:54:48.793Z,5.86
2017-12-22T19:55:49.367Z,5.86
2017-12-22T19:56:49.933Z,5.91
2017-12-22T19:57:50.504Z,5.89
2017-12-22T19:58:51.074Z,5.94
2017-12-22T19:59:51.644Z,5.91
2017-12-22T20:00:52.227Z,5.99
2017-12-22T20:01:52.797Z,5.91
2017-12-22T20:02:53.367Z,5.99
2017-12-22T20:03:53.936Z,5.97
2017-12-22T20:04:54.506Z,5.97
2017-12-22T20:05:55.079Z,6.07
2017-12-22T20:06:55.647Z,5.90
2017-12-22T20:07:56.220Z,5.94
2017-12-22T20:08:56.789Z,5.94
2017-12-22T20:09:57.359Z,5.94
2017-12-22T20:10:57.943Z,5.94
2017-12-22T20:11:58.512Z,5.89
2017-12-22T20:12:59.080Z,5.94
2017-12-22T20:13:59.650Z,6.01
2017-12-22T20:15:00.223Z,5.99
2017-12-22T20:16:00.789Z,5.94
2017-12-22T20:17:01.358Z,6.01
2017-12-22T20:18:01.929Z,5.91
2017-12-22T20:19:02.513Z,5.89
2017-12-22T20:20:03.083Z,5.94
2017-12-22T20:21:03.667Z,5.94
2017-12-22T20:22:04.240Z,5.94
2017-12-22T20:23:04.812Z,5.94
2017-12-22T20:24:05.381Z,5.93
2017-12-22T20:25:05.953Z,6.05
2017-12-22T20:26:06.524Z,5.97
2017-12-22T20:27:07.094Z,5.97
2017-12-22T20:28:07.664Z,5.99
2017-12-22T20:29:08.232Z,5.93